createdAt,value
2022-12-17T00:01:55.831Z,13.03
2022-12-17T00:04:43.251Z,17.97
2022-12-17T00:07:30.483Z,15.50
2022-12-17T00:10:15.826Z,14.07
2022-12-17T00:13:07.777Z,12.37
2022-12-17T00:15:54.268Z,13.23
2022-12-17T00:18:47.652Z,13.03
2022-12-17T00:21:34.975Z,12.87
2022-12-17T00:24:23.943Z,13.13
2022-12-17T00:27:10.344Z,13.20
2022-12-17T00:29:58.955Z,13.13
2022-12-17T00:32:47.404Z,12.93
2022-12-17T00:35:33.910Z,11.93
2022-12-17T00:38:22.251Z,12.63
2022-12-17T00:41:12.976Z,11.20
2022-12-17T00:44:01.499Z,10.77
2022-12-17T00:46:49.879Z,11.67
2022-12-17T00:49:38.284Z,10.97
2022-12-17T00:52:23.804Z,11.60
2022-12-17T00:55:08.973Z,11.60
2022-12-17T00:57:56.365Z,11.73
2022-12-17T01:00:42.260Z,11.13
2022-12-17T01:03:31.815Z,10.70
2022-12-17T01:06:23.130Z,10.13
2022-12-17T01:09:08.530Z,10.13
2022-12-17T01:11:56.633Z,10.30
2022-12-17T01:14:44.205Z,11.53
2022-12-17T01:17:30.702Z,9.63
2022-12-17T01:20:17.998Z,10.40
2022-12-17T01:23:06.546Z,10.10
2022-12-17T01:25:54.899Z,9.93
2022-12-17T01:28:42.853Z,9.87
2022-12-17T01:31:34.293Z,10.47
2022-12-17T01:34:21.784Z,9.17
2022-12-17T01:37:10.156Z,8.80
2022-12-17T01:39:58.538Z,9.90
2022-12-17T01:42:54.981Z,11.10
2022-12-17T01:45:41.394Z,9.53
2022-12-17T01:48:32.393Z,9.63
2022-12-17T01:51:21.634Z,10.20
2022-12-17T01:54:12.491Z,9.97
2022-12-17T01:57:02.456Z,9.97
2022-12-17T02:00:11.333Z,9.43
2022-12-17T02:02:57.948Z,9.03
2022-12-17T02:05:52.655Z,9.77
2022-12-17T02:09:03.413Z,9.70
2022-12-17T02:12:06.357Z,10.17
2022-12-17T02:14:58.150Z,9.07
2022-12-17T02:17:59.618Z,9.77
2022-12-17T02:20:56.157Z,9.23
2022-12-17T02:24:06.808Z,9.70
2022-12-17T02:27:00.957Z,9.03
2022-12-17T02:29:55.424Z,8.77
2022-12-17T02:32:44.705Z,8.70
2022-12-17T02:35:51.239Z,8.87
2022-12-17T02:38:52.966Z,8.27
2022-12-17T02:42:17.060Z,8.70
2022-12-17T02:45:08.480Z,7.83
2022-12-17T02:47:55.709Z,8.03
2022-12-17T02:50:43.356Z,7.40
2022-12-17T02:53:32.390Z,7.70
2022-12-17T02:56:20.866Z,7.80
2022-12-17T02:59:11.501Z,7.67
2022-12-17T03:01:57.053Z,7.67
2022-12-17T03:04:43.878Z,7.57
2022-12-17T03:07:30.359Z,8.03
2022-12-17T03:10:22.252Z,8.43
2022-12-17T03:13:09.525Z,7.83
2022-12-17T03:15:57.844Z,7.63
2022-12-17T03:18:46.357Z,7.70
2022-12-17T03:21:31.737Z,7.70
2022-12-17T03:24:20.031Z,6.57
2022-12-17T03:27:06.341Z,7.10
2022-12-17T03:29:53.715Z,6.93
2022-12-17T03:32:40.405Z,6.70
2022-12-17T03:35:28.786Z,7.03
2022-12-17T03:38:15.035Z,7.90
2022-12-17T03:41:00.493Z,8.63
2022-12-17T03:43:50.979Z,8.43
2022-12-17T03:46:39.365Z,8.30
2022-12-17T03:49:25.404Z,7.80
2022-12-17T03:52:12.170Z,7.27
2022-12-17T03:55:00.577Z,7.57
2022-12-17T03:57:49.059Z,7.17
2022-12-17T04:00:35.064Z,6.70
2022-12-17T04:03:21.663Z,6.20
2022-12-17T04:06:08.448Z,7.07
2022-12-17T04:08:56.963Z,6.83
2022-12-17T04:11:45.323Z,6.43
2022-12-17T04:14:33.689Z,6.63
2022-12-17T04:17:22.082Z,8.03
2022-12-17T04:20:09.576Z,6.60
2022-12-17T04:22:55.785Z,7.03
2022-12-17T04:25:41.243Z,7.13
2022-12-17T04:28:29.562Z,6.83
2022-12-17T04:31:14.983Z,6.67
2022-12-17T04:34:01.452Z,6.23
2022-12-17T04:36:48.797Z,6.37
2022-12-17T04:39:37.142Z,6.10
2022-12-17T04:42:22.572Z,6.17
2022-12-17T04:45:11.078Z,6.03
2022-12-17T04:47:59.524Z,6.60
2022-12-17T04:50:45.922Z,7.20
2022-12-17T04:53:34.916Z,5.70
2022-12-17T04:56:21.875Z,5.53
2022-12-17T04:59:09.282Z,6.40
2022-12-17T05:01:54.941Z,6.67
2022-12-17T05:04:40.740Z,6.30
2022-12-17T05:07:26.019Z,6.10
2022-12-17T05:10:14.488Z,6.00
2022-12-17T05:13:00.033Z,5.20
2022-12-17T05:15:51.270Z,6.20
2022-12-17T05:18:39.227Z,5.83
2022-12-17T05:21:30.470Z,6.30
2022-12-17T05:24:20.700Z,5.20
2022-12-17T05:27:08.174Z,5.37
2022-12-17T05:29:56.638Z,5.63
2022-12-17T05:32:43.016Z,5.50
2022-12-17T05:35:31.280Z,6.17
2022-12-17T05:38:29.104Z,10.67
2022-12-17T05:41:18.898Z,7.97
2022-12-17T05:44:04.118Z,9.00
2022-12-17T05:46:55.639Z,8.67
2022-12-17T05:49:42.127Z,7.67
2022-12-17T05:52:30.400Z,8.63
2022-12-17T05:55:18.920Z,11.23
2022-12-17T05:58:07.374Z,10.70
2022-12-17T06:00:54.764Z,11.10
2022-12-17T06:03:40.549Z,12.37
2022-12-17T06:06:29.422Z,12.90
2022-12-17T06:09:14.765Z,13.70
2022-12-17T06:12:06.131Z,12.50
2022-12-17T06:14:54.312Z,14.77
2022-12-17T06:17:41.584Z,14.30
2022-12-17T06:20:28.666Z,14.70
2022-12-17T06:23:27.532Z,14.97
2022-12-17T06:26:16.500Z,14.27
2022-12-17T06:29:02.326Z,12.77
2022-12-17T06:31:48.603Z,13.67
2022-12-17T06:34:33.860Z,13.90
2022-12-17T06:37:19.222Z,14.37
2022-12-17T06:40:07.651Z,14.80
2022-12-17T06:42:55.037Z,14.60
2022-12-17T06:45:43.416Z,14.03
2022-12-17T06:48:29.641Z,16.43
2022-12-17T06:51:18.159Z,19.63
2022-12-17T06:54:07.021Z,18.17
2022-12-17T06:56:55.344Z,20.33
2022-12-17T06:59:42.651Z,20.93
2022-12-17T07:02:31.133Z,22.03
2022-12-17T07:05:22.592Z,22.73
2022-12-17T07:08:08.206Z,23.07
2022-12-17T07:10:55.726Z,23.90
2022-12-17T07:13:43.591Z,24.73
2022-12-17T07:16:32.418Z,23.73
2022-12-17T07:19:27.229Z,25.33
2022-12-17T07:22:14.794Z,27.13
2022-12-17T07:25:02.149Z,25.67
2022-12-17T07:27:49.534Z,25.93
2022-12-17T07:30:35.008Z,26.37
2022-12-17T07:33:25.930Z,27.07
2022-12-17T07:36:13.463Z,27.90
2022-12-17T07:39:01.805Z,26.73
2022-12-17T07:41:54.748Z,26.13
2022-12-17T07:44:41.461Z,27.83
2022-12-17T07:47:42.393Z,26.87
2022-12-17T07:50:27.635Z,26.50
2022-12-17T07:53:20.153Z,27.53
2022-12-17T07:56:06.016Z,26.23
2022-12-17T07:59:04.171Z,23.27
2022-12-17T08:01:52.769Z,23.70
2022-12-17T08:04:46.237Z,22.57
2022-12-17T08:07:34.646Z,21.87
2022-12-17T08:10:23.935Z,22.10
2022-12-17T08:13:14.559Z,20.83
2022-12-17T08:16:07.803Z,20.73
2022-12-17T08:18:56.309Z,19.63
2022-12-17T08:21:43.522Z,19.90
2022-12-17T08:24:31.953Z,19.87
2022-12-17T08:27:20.521Z,19.00
2022-12-17T08:30:05.824Z,20.17
2022-12-17T08:32:51.100Z,20.20
2022-12-17T08:35:36.485Z,18.50
2022-12-17T08:38:22.775Z,18.00
2022-12-17T08:41:08.205Z,17.90
2022-12-17T08:43:53.580Z,18.97
2022-12-17T08:46:39.202Z,18.30
2022-12-17T08:49:27.596Z,17.57
2022-12-17T08:52:14.985Z,17.60
2022-12-17T08:55:03.249Z,16.67
2022-12-17T08:58:02.247Z,16.90
2022-12-17T09:00:52.985Z,17.40
2022-12-17T09:03:38.959Z,18.60
2022-12-17T09:06:26.986Z,17.33
2022-12-17T09:09:12.381Z,17.03
2022-12-17T09:11:57.666Z,14.00
2022-12-17T09:14:43.102Z,13.73
2022-12-17T09:17:30.621Z,15.17
2022-12-17T09:20:16.013Z,15.43
2022-12-17T09:23:07.217Z,13.27
2022-12-17T09:25:58.264Z,15.37
2022-12-17T09:28:44.914Z,15.33
2022-12-17T09:31:37.277Z,15.40
2022-12-17T09:34:29.066Z,16.57
2022-12-17T09:37:15.594Z,15.00
2022-12-17T09:40:01.870Z,13.83
2022-12-17T09:43:14.694Z,13.67
2022-12-17T09:46:30.406Z,11.80
2022-12-17T09:49:34.925Z,9.97
2022-12-17T09:52:27.821Z,10.20
2022-12-17T09:55:14.191Z,8.53
2022-12-17T09:58:03.092Z,9.57
2022-12-17T10:00:50.431Z,8.53
2022-12-17T10:03:40.854Z,8.30
2022-12-17T10:06:38.521Z,7.93
2022-12-17T10:09:34.030Z,8.90
2022-12-17T10:12:34.286Z,9.30
2022-12-17T10:15:23.389Z,9.23
2022-12-17T10:18:11.771Z,9.23
2022-12-17T10:21:20.778Z,9.80
2022-12-17T10:24:07.234Z,10.27
2022-12-17T10:26:54.544Z,8.70
2022-12-17T10:29:47.662Z,9.13
2022-12-17T10:32:33.750Z,9.40
2022-12-17T10:35:31.210Z,9.10
2022-12-17T10:38:20.187Z,9.50
2022-12-17T10:41:08.615Z,8.93
2022-12-17T10:43:57.811Z,8.67
2022-12-17T10:46:46.723Z,8.70
2022-12-17T10:49:37.589Z,10.23
2022-12-17T10:52:50.648Z,10.13
2022-12-17T10:55:47.229Z,11.37
2022-12-17T10:58:54.146Z,10.50
2022-12-17T11:01:42.165Z,11.23
2022-12-17T11:04:46.384Z,11.17
2022-12-17T11:07:43.952Z,11.60
2022-12-17T11:10:38.347Z,10.87
2022-12-17T11:13:49.354Z,11.63
2022-12-17T11:16:43.406Z,11.90
2022-12-17T11:19:28.675Z,12.30
2022-12-17T11:22:20.310Z,12.53
2022-12-17T11:25:18.836Z,12.70
2022-12-17T11:28:17.394Z,12.97
2022-12-17T11:31:15.752Z,12.93
2022-12-17T11:34:21.826Z,13.40
2022-12-17T11:37:21.333Z,13.50
2022-12-17T11:40:18.733Z,14.00
2022-12-17T11:43:48.090Z,14.53
2022-12-17T11:46:59.276Z,15.30
2022-12-17T11:49:55.902Z,14.53
2022-12-17T11:52:57.450Z,14.17
2022-12-17T11:56:02.270Z,14.17
2022-12-17T11:58:59.152Z,14.43
2022-12-17T12:02:25.900Z,14.03
2022-12-17T12:05:56.704Z,13.27
2022-12-17T12:08:53.986Z,13.57
2022-12-17T12:12:04.174Z,12.47
2022-12-17T12:15:29.051Z,13.43
2022-12-17T12:18:56.239Z,14.33
2022-12-17T12:21:45.626Z,13.70
2022-12-17T12:24:42.059Z,13.40
2022-12-17T12:27:42.243Z,14.97
2022-12-17T12:30:37.972Z,14.87
2022-12-17T12:34:05.892Z,15.47
2022-12-17T12:36:53.338Z,15.00
2022-12-17T12:39:50.225Z,16.93
2022-12-17T12:42:52.235Z,14.53
2022-12-17T12:46:21.324Z,15.13
2022-12-17T12:49:16.881Z,15.53
2022-12-17T12:52:10.965Z,16.07
2022-12-17T12:55:05.390Z,16.53
2022-12-17T12:58:15.312Z,15.07
2022-12-17T13:01:06.757Z,16.57
2022-12-17T13:04:04.291Z,15.47
2022-12-17T13:06:55.659Z,16.37
2022-12-17T13:09:22.651Z,16.80
2022-12-17T13:11:55.363Z,17.17
2022-12-17T13:14:35.467Z,16.63
2022-12-17T13:17:26.257Z,17.33
2022-12-17T13:20:17.831Z,17.97
2022-12-17T13:23:04.511Z,16.90
2022-12-17T13:25:32.494Z,18.00
2022-12-17T13:28:02.657Z,16.50
2022-12-17T13:30:39.074Z,16.80
2022-12-17T13:33:19.497Z,18.03
2022-12-17T13:35:50.436Z,18.23
2022-12-17T13:38:36.167Z,17.80
2022-12-17T13:41:22.335Z,16.97
2022-12-17T13:43:54.589Z,19.00
2022-12-17T13:46:26.190Z,18.63
2022-12-17T13:49:02.709Z,18.00
2022-12-17T13:51:33.775Z,18.03
2022-12-17T13:54:04.437Z,17.93
2022-12-17T13:56:37.402Z,18.00
2022-12-17T13:59:09.553Z,17.60
2022-12-17T14:01:47.558Z,18.97
2022-12-17T14:04:26.688Z,19.23
2022-12-17T14:07:04.592Z,19.97
2022-12-17T14:09:39.447Z,19.13
2022-12-17T14:12:23.857Z,19.93
2022-12-17T14:15:00.028Z,18.63
2022-12-17T14:17:47.560Z,18.00
2022-12-17T14:20:22.275Z,19.57
2022-12-17T14:23:00.652Z,19.27
2022-12-17T14:25:38.019Z,20.10
2022-12-17T14:28:34.158Z,19.20
2022-12-17T14:34:11.918Z,21.70
2022-12-17T14:36:44.206Z,20.17
2022-12-17T14:39:18.784Z,19.67
2022-12-17T14:42:07.484Z,20.23
2022-12-17T14:44:52.031Z,20.47
2022-12-17T14:47:34.250Z,20.67
2022-12-17T14:50:04.932Z,21.70
2022-12-17T14:52:57.516Z,20.60
2022-12-17T14:55:33.978Z,22.43
2022-12-17T14:58:13.109Z,21.50
2022-12-17T15:00:52.921Z,22.10
2022-12-17T15:03:29.688Z,23.63
2022-12-17T15:06:08.203Z,22.30
2022-12-17T15:08:44.143Z,23.20
2022-12-17T15:11:15.291Z,24.77
2022-12-17T15:13:51.404Z,23.90
2022-12-17T15:16:24.777Z,25.00
2022-12-17T15:18:51.805Z,24.60
2022-12-17T15:21:19.388Z,24.83
2022-12-17T15:23:47.662Z,23.80
2022-12-17T15:26:15.711Z,24.23
2022-12-17T15:28:45.972Z,25.40
2022-12-17T15:31:15.252Z,25.67
2022-12-17T15:33:42.822Z,25.17
2022-12-17T15:36:11.669Z,25.10
2022-12-17T15:38:40.139Z,25.17
2022-12-17T15:41:29.630Z,25.50
2022-12-17T15:43:56.490Z,24.93
2022-12-17T15:46:23.748Z,26.77
2022-12-17T15:48:53.702Z,25.13
2022-12-17T15:51:23.811Z,25.57
2022-12-17T15:53:53.817Z,26.43
2022-12-17T15:56:29.897Z,27.13
2022-12-17T15:58:59.934Z,26.90
2022-12-17T16:01:29.088Z,26.33
2022-12-17T16:03:56.114Z,26.00
2022-12-17T16:06:26.395Z,28.77
2022-12-17T16:08:54.372Z,27.73
2022-12-17T16:11:23.366Z,27.97
2022-12-17T16:13:55.059Z,27.77
2022-12-17T16:16:24.491Z,27.03
2022-12-17T16:18:52.277Z,26.53
2022-12-17T16:21:21.252Z,27.63
2022-12-17T16:23:48.142Z,27.07
2022-12-17T16:26:15.022Z,25.30
2022-12-17T16:28:45.163Z,24.70
2022-12-17T16:31:15.824Z,23.83
2022-12-17T16:33:47.534Z,25.77
2022-12-17T16:36:17.436Z,24.07
2022-12-17T16:38:49.338Z,22.80
2022-12-17T16:41:20.054Z,24.50
2022-12-17T16:43:48.642Z,25.53
2022-12-17T16:46:36.898Z,26.73
2022-12-17T16:49:15.566Z,25.70
2022-12-17T16:51:46.385Z,26.30
2022-12-17T16:54:17.565Z,24.10
2022-12-17T16:56:48.122Z,23.27
2022-12-17T16:59:18.894Z,23.73
2022-12-17T17:01:52.025Z,24.37
2022-12-17T17:04:21.473Z,23.77
2022-12-17T17:06:53.886Z,24.60
2022-12-17T17:09:22.564Z,28.23
2022-12-17T17:11:52.150Z,30.63
2022-12-17T17:14:22.516Z,29.63
2022-12-17T17:16:50.750Z,29.80
2022-12-17T17:19:21.022Z,31.20
2022-12-17T17:21:54.411Z,27.60
2022-12-17T17:24:25.558Z,27.37
2022-12-17T17:26:53.718Z,26.90
2022-12-17T17:29:21.077Z,28.23
2022-12-17T17:34:36.099Z,28.33
2022-12-17T17:37:03.147Z,29.97
2022-12-17T17:39:34.350Z,27.33
2022-12-17T17:42:01.809Z,28.57
2022-12-17T17:44:28.683Z,28.80
2022-12-17T17:46:56.662Z,27.63
2022-12-17T17:49:23.728Z,31.37
2022-12-17T17:52:10.601Z,31.17
2022-12-17T17:54:41.227Z,30.40
2022-12-17T17:57:08.867Z,30.40
2022-12-17T17:59:35.990Z,29.03
2022-12-17T18:02:06.095Z,29.93
2022-12-17T18:04:33.245Z,28.67
2022-12-17T18:07:25.232Z,28.20
2022-12-17T18:09:51.376Z,28.83
2022-12-17T18:12:38.844Z,29.43
2022-12-17T18:15:14.887Z,28.07
2022-12-17T18:17:47.099Z,28.87
2022-12-17T18:20:15.955Z,30.13
2022-12-17T18:22:46.474Z,29.70
2022-12-17T18:25:17.847Z,30.23
2022-12-17T18:27:45.164Z,29.33
2022-12-17T18:30:12.423Z,30.03
2022-12-17T18:32:39.317Z,30.23
2022-12-17T18:35:06.787Z,28.73
2022-12-17T18:37:33.714Z,29.23
2022-12-17T18:40:00.649Z,28.80
2022-12-17T18:42:46.111Z,28.87
2022-12-17T18:45:13.023Z,29.33
2022-12-17T18:47:44.716Z,29.37
2022-12-17T18:50:12.998Z,31.23
2022-12-17T18:52:40.113Z,29.57
2022-12-17T18:55:07.508Z,30.37
2022-12-17T18:57:37.450Z,29.53
2022-12-17T19:00:05.259Z,29.83
2022-12-17T19:02:32.375Z,29.63
2022-12-17T19:05:00.643Z,29.63
2022-12-17T19:07:28.643Z,29.53
2022-12-17T19:09:57.527Z,29.17
2022-12-17T19:12:27.534Z,29.10
2022-12-17T19:14:57.598Z,28.60
2022-12-17T19:17:26.503Z,30.47
2022-12-17T19:19:55.487Z,28.40
2022-12-17T19:22:25.402Z,28.50
2022-12-17T19:24:52.444Z,27.70
2022-12-17T19:27:28.978Z,28.80
2022-12-17T19:29:59.265Z,29.50
2022-12-17T19:32:26.194Z,31.27
2022-12-17T19:34:53.191Z,29.87
2022-12-17T19:37:20.255Z,30.20
2022-12-17T19:39:53.183Z,30.90
2022-12-17T19:42:25.857Z,29.83
2022-12-17T19:44:55.601Z,28.83
2022-12-17T19:47:30.644Z,32.30
2022-12-17T19:49:58.539Z,30.47
2022-12-17T19:52:28.546Z,32.23
2022-12-17T19:54:56.621Z,31.17
2022-12-17T19:57:24.597Z,31.37
2022-12-17T19:59:51.470Z,31.37
2022-12-17T20:02:19.892Z,32.43
2022-12-17T20:04:47.037Z,32.67
2022-12-17T20:07:17.196Z,32.20
2022-12-17T20:09:47.117Z,31.47
2022-12-17T20:12:15.093Z,30.50
2022-12-17T20:14:43.044Z,33.43
2022-12-17T20:17:10.104Z,32.23
2022-12-17T20:19:43.703Z,34.23
2022-12-17T20:22:10.635Z,33.60
2022-12-17T20:24:39.247Z,34.67
2022-12-17T20:27:06.476Z,34.33
2022-12-17T20:29:35.942Z,33.77
2022-12-17T20:32:04.100Z,33.07
2022-12-17T20:34:33.297Z,32.53
2022-12-17T20:37:01.234Z,33.17
2022-12-17T20:39:29.266Z,33.30
2022-12-17T20:41:57.186Z,32.47
2022-12-17T20:44:27.257Z,33.80
2022-12-17T20:46:55.303Z,33.70
2022-12-17T20:49:23.279Z,31.73
2022-12-17T20:51:50.224Z,31.90
2022-12-17T20:54:20.451Z,31.40
2022-12-17T20:56:50.762Z,33.83
2022-12-17T20:59:20.441Z,32.97
2022-12-17T21:01:51.670Z,32.20
2022-12-17T21:04:23.064Z,35.77
2022-12-17T21:06:49.935Z,33.90
2022-12-17T21:09:22.530Z,31.97
2022-12-17T21:11:49.691Z,33.97
2022-12-17T21:14:18.861Z,33.77
2022-12-17T21:16:46.497Z,32.00
2022-12-17T21:19:20.189Z,33.10
2022-12-17T21:21:48.634Z,31.10
2022-12-17T21:24:16.137Z,32.83
2022-12-17T21:26:47.192Z,32.23
2022-12-17T21:29:15.353Z,31.73
2022-12-17T21:31:44.068Z,32.60
2022-12-17T21:34:15.727Z,32.83
2022-12-17T21:36:43.625Z,33.03
2022-12-17T21:39:13.425Z,33.67
2022-12-17T21:41:45.007Z,32.60
2022-12-17T21:44:15.161Z,33.27
2022-12-17T21:46:43.091Z,35.73
2022-12-17T21:49:11.008Z,34.97
2022-12-17T21:51:38.261Z,35.33
2022-12-17T21:54:08.545Z,33.20
2022-12-17T21:56:36.635Z,32.77
2022-12-17T21:59:04.151Z,34.63
2022-12-17T22:01:33.711Z,34.13
2022-12-17T22:04:03.237Z,36.50
2022-12-17T22:06:37.478Z,34.10
2022-12-17T22:09:13.389Z,33.67
2022-12-17T22:11:45.428Z,34.73
2022-12-17T22:14:18.784Z,33.17
2022-12-17T22:16:49.476Z,31.93
2022-12-17T22:19:22.854Z,33.53
2022-12-17T22:21:51.705Z,33.70
2022-12-17T22:24:24.994Z,33.30
2022-12-17T22:26:59.565Z,36.27
2022-12-17T22:29:46.432Z,34.73
2022-12-17T22:32:31.660Z,34.23
2022-12-17T22:36:02.301Z,36.47
2022-12-17T22:40:31.851Z,36.97
2022-12-17T22:44:31.064Z,33.63
2022-12-17T22:44:46.302Z,36.13
2022-12-17T22:46:18.291Z,34.13
2022-12-17T22:48:45.359Z,37.60
2022-12-17T22:51:15.341Z,35.93
2022-12-17T22:53:50.041Z,36.30
2022-12-17T22:56:32.511Z,36.47
2022-12-17T22:59:05.145Z,36.37
2022-12-17T23:01:32.706Z,36.13
2022-12-17T23:04:01.989Z,38.00
2022-12-17T23:06:29.167Z,37.00
2022-12-17T23:08:56.541Z,36.80
2022-12-17T23:11:26.068Z,38.00
2022-12-17T23:13:53.878Z,36.80
2022-12-17T23:16:21.618Z,34.73
2022-12-17T23:18:49.785Z,37.37
2022-12-17T23:21:24.316Z,38.43
2022-12-17T23:23:52.562Z,39.10
2022-12-17T23:26:26.343Z,39.33
2022-12-17T23:28:58.636Z,37.27
2022-12-17T23:31:27.546Z,39.63
2022-12-17T23:33:54.594Z,37.20
2022-12-17T23:36:23.874Z,34.83
2022-12-17T23:38:51.605Z,36.17
2022-12-17T23:41:21.258Z,36.33
2022-12-17T23:43:49.274Z,37.47
2022-12-17T23:46:17.827Z,37.07
2022-12-17T23:48:46.105Z,36.43
2022-12-17T23:51:15.470Z,35.87
2022-12-17T23:53:43.740Z,34.73
2022-12-17T23:56:23.106Z,37.27
2022-12-17T23:58:53.702Z,34.47
